Time;durP1;ratioP1;P1;durP2;ratioP2;P2;SDS_P1;SDS_P2;PMS_P1;PMS_P2;Temp;Humidity;BMP_temperature;BMP_pressure;BME280_temperature;BME280_humidity;BME280_pressure;Samples;Min_cycle;Max_cycle;Signal;HPM_P1;HPM_P2
2023/04/23 00:01:38;;;;;;;14.05;10.18;;;;;;;9.89;67.68;99739.94;4467659;32;33756;-78
2023/04/23 00:04:07;;;;;;;15.00;10.70;;;;;;;9.86;68.07;99726.87;4458492;32;34172;-80
2023/04/23 00:06:35;;;;;;;17.10;10.88;;;;;;;10.02;67.07;99726.78;4478044;32;32814;-78
2023/04/23 00:09:05;;;;;;;15.10;10.60;;;;;;;10.03;67.28;99723.34;4469127;32;34499;-80
2023/04/23 00:11:34;;;;;;;17.83;10.95;;;;;;;10.00;67.23;99730.97;4470543;32;33432;-81
2023/04/23 00:14:01;;;;;;;17.27;10.18;;;;;;;9.50;69.55;99728.59;4470644;32;34566;-82
2023/04/23 00:16:29;;;;;;;14.27;10.07;;;;;;;9.74;68.44;99734.06;4448342;32;33208;-76
2023/04/23 00:18:57;;;;;;;13.10;9.30;;;;;;;9.56;69.01;99734.97;4457486;32;33447;-80
2023/04/23 00:21:26;;;;;;;15.38;9.73;;;;;;;9.86;67.66;99729.44;4455915;32;33776;-77
2023/04/23 00:23:54;;;;;;;15.50;9.63;;;;;;;9.61;68.47;99728.28;4446512;32;33953;-77
2023/04/23 00:26:21;;;;;;;14.57;9.73;;;;;;;9.52;69.16;99721.81;4447245;32;33541;-79
2023/04/23 00:28:49;;;;;;;17.58;10.10;;;;;;;9.36;69.34;99721.06;4448738;32;34397;-77
2023/04/23 00:31:17;;;;;;;13.68;9.48;;;;;;;9.19;70.26;99722.84;4453592;32;33554;-76
2023/04/23 00:33:45;;;;;;;13.38;10.30;;;;;;;8.87;71.55;99723.84;4446150;32;34683;-78
2023/04/23 00:36:12;;;;;;;14.52;10.48;;;;;;;9.15;71.07;99726.06;4440074;32;31983;-79
2023/04/23 00:38:40;;;;;;;14.63;10.40;;;;;;;9.33;70.69;99725.19;4449785;32;33661;-77
2023/04/23 00:41:08;;;;;;;15.95;10.45;;;;;;;9.15;70.59;99715.75;4450902;32;33495;-81
2023/04/23 00:43:36;;;;;;;14.98;9.45;;;;;;;8.91;71.08;99717.13;4451068;32;33689;-79
2023/04/23 00:46:04;;;;;;;13.57;9.63;;;;;;;8.85;71.08;99717.72;4449310;32;32077;-78
2023/04/23 00:48:33;;;;;;;13.53;9.27;;;;;;;8.93;70.67;99718.97;4431651;32;33373;-81
2023/04/23 00:51:05;;;;;;;16.20;9.88;;;;;;;8.91;70.64;99724.88;4455889;32;33479;-78
2023/04/23 00:53:33;;;;;;;14.40;9.65;;;;;;;9.03;70.09;99717.72;4450801;32;33649;-78
2023/04/23 00:56:01;;;;;;;14.00;9.63;;;;;;;9.18;69.50;99728.81;4450403;32;33610;-80
2023/04/23 00:58:28;;;;;;;15.70;9.40;;;;;;;9.33;68.54;99720.03;4447307;32;34418;-80
2023/04/23 01:00:56;;;;;;;14.07;9.57;;;;;;;9.22;69.00;99723.00;4450201;32;35093;-80
2023/04/23 01:03:25;;;;;;;14.63;10.13;;;;;;;9.39;68.57;99725.53;4446779;32;33900;-81
2023/04/23 01:05:53;;;;;;;15.25;10.05;;;;;;;9.30;68.82;99710.44;4438980;32;34162;-78
2023/04/23 01:08:22;;;;;;;14.33;9.97;;;;;;;8.94;70.52;99719.84;4440493;32;33291;-78
2023/04/23 01:10:50;;;;;;;14.10;9.95;;;;;;;8.87;71.07;99720.38;4450209;32;33603;-77
2023/04/23 01:13:17;;;;;;;13.80;9.40;;;;;;;8.90;70.29;99720.50;4449888;32;34481;-80
2023/04/23 01:15:45;;;;;;;16.37;10.90;;;;;;;8.74;70.97;99717.16;4436776;32;798783;-76
2023/04/23 01:18:14;;;;;;;15.95;10.50;;;;;;;8.71;71.44;99721.28;4471810;32;33191;-79
2023/04/23 01:20:42;;;;;;;14.60;10.13;;;;;;;8.64;71.78;99720.97;4469761;32;33302;-81
2023/04/23 01:23:10;;;;;;;15.27;10.05;;;;;;;8.68;71.57;99719.44;4470575;32;33851;-77
2023/04/23 01:25:38;;;;;;;14.40;9.93;;;;;;;8.72;70.81;99718.78;4471156;32;34328;-79
2023/04/23 01:28:05;;;;;;;15.18;10.35;;;;;;;8.71;71.03;99717.03;4476433;32;33580;-81
2023/04/23 01:30:34;;;;;;;14.38;10.05;;;;;;;8.89;70.32;99716.16;4458188;32;33789;-79
2023/04/23 01:33:02;;;;;;;14.93;9.82;;;;;;;8.96;69.96;99718.22;4477464;32;34019;-78
2023/04/23 01:35:30;;;;;;;15.52;10.07;;;;;;;8.90;70.06;99708.47;4474849;32;33551;-77
2023/04/23 01:38:01;;;;;;;15.43;10.90;;;;;;;8.89;70.32;99713.59;4474782;32;33700;-79
2023/04/23 01:40:29;;;;;;;16.00;10.57;;;;;;;8.68;71.06;99709.09;4458169;32;32185;-77
2023/04/23 01:42:57;;;;;;;16.48;10.30;;;;;;;8.56;71.88;99711.06;4465712;32;34560;-79
2023/04/23 01:45:25;;;;;;;16.27;10.95;;;;;;;8.38;72.79;99711.87;4452339;32;34413;-78
2023/04/23 01:47:52;;;;;;;16.55;10.18;;;;;;;8.59;72.02;99717.25;4468626;32;33114;-78
2023/04/23 01:50:23;;;;;;;14.68;10.27;;;;;;;8.61;71.19;99717.34;4457210;32;33576;-76
2023/04/23 01:52:51;;;;;;;14.57;10.38;;;;;;;8.34;72.04;99709.91;4467356;32;33823;-77
2023/04/23 01:55:19;;;;;;;16.02;10.50;;;;;;;8.55;71.00;99710.16;4467022;32;33462;-80
2023/04/23 01:57:47;;;;;;;15.93;10.18;;;;;;;8.66;70.75;99703.84;4465220;32;34089;-80
2023/04/23 02:00:16;;;;;;;14.13;10.02;;;;;;;8.41;72.15;99706.88;4449176;32;33660;-79
2023/04/23 02:02:44;;;;;;;15.85;10.35;;;;;;;8.38;72.46;99698.97;4465163;32;34702;-81
2023/04/23 02:05:15;;;;;;;18.52;10.63;;;;;;;8.28;72.29;99699.28;4468005;32;34294;-80
2023/04/23 02:07:44;;;;;;;13.95;9.68;;;;;;;8.30;72.36;99701.94;4473469;32;33838;-79
2023/04/23 02:10:12;;;;;;;14.32;10.07;;;;;;;8.40;71.60;99699.94;4468438;32;33745;-77
2023/04/23 02:12:40;;;;;;;15.25;10.48;;;;;;;8.43;71.32;99700.09;4469023;32;33771;-79
2023/04/23 02:15:10;;;;;;;15.80;10.00;;;;;;;8.42;71.64;99703.50;4469041;32;33475;-79
2023/04/23 02:17:38;;;;;;;15.48;10.45;;;;;;;8.45;71.36;99693.31;4475586;32;33585;-80
2023/04/23 02:20:10;;;;;;;15.32;10.65;;;;;;;8.44;71.14;99693.22;4470867;32;33554;-76
2023/04/23 02:22:40;;;;;;;15.05;10.43;;;;;;;8.38;71.79;99696.37;4456357;32;33716;-80
2023/04/23 02:25:08;;;;;;;16.12;10.27;;;;;;;8.35;72.06;99695.34;4452023;32;33372;-78
2023/04/23 02:27:35;;;;;;;16.62;10.68;;;;;;;8.39;71.09;99687.81;4466878;32;33501;-79
2023/04/23 02:30:03;;;;;;;14.02;10.18;;;;;;;8.40;71.30;99694.75;4466546;32;33603;-81
2023/04/23 02:32:31;;;;;;;15.35;10.15;;;;;;;8.39;71.37;99692.09;4465600;32;34666;-78
2023/04/23 02:35:00;;;;;;;17.02;10.30;;;;;;;8.46;70.78;99684.78;4466326;32;33512;-82
2023/04/23 02:37:28;;;;;;;14.25;10.27;;;;;;;8.43;71.10;99684.59;4473750;32;34251;-78
2023/04/23 02:39:56;;;;;;;14.23;10.20;;;;;;;8.34;71.42;99699.56;4469706;32;33569;-80
2023/04/23 02:42:23;;;;;;;14.90;10.55;;;;;;;8.19;72.00;99689.37;4465739;32;32685;-78
2023/04/23 02:44:50;;;;;;;15.00;10.32;;;;;;;8.34;71.42;99684.09;4466595;32;34104;-79
2023/04/23 02:47:18;;;;;;;15.13;10.57;;;;;;;8.51;70.36;99689.28;4476059;32;33814;-78
2023/04/23 02:49:46;;;;;;;15.23;10.20;;;;;;;8.43;70.95;99683.72;4466025;32;33699;-78
2023/04/23 02:52:13;;;;;;;15.07;10.10;;;;;;;8.24;71.80;99682.72;4468803;32;34103;-77
2023/04/23 02:54:41;;;;;;;16.50;10.40;;;;;;;8.29;71.51;99680.41;4463925;32;33685;-79
2023/04/23 02:57:09;;;;;;;16.40;10.85;;;;;;;8.19;71.89;99683.31;4475185;32;33731;-79
2023/04/23 02:59:37;;;;;;;19.20;10.70;;;;;;;8.17;72.10;99680.66;4469357;32;33370;-81
2023/04/23 03:02:05;;;;;;;15.83;10.33;;;;;;;8.36;71.33;99686.75;4469895;32;33536;-77
2023/04/23 03:04:33;;;;;;;15.93;10.95;;;;;;;8.26;71.75;99675.97;4469837;32;34117;-78
2023/04/23 03:07:00;;;;;;;15.77;10.50;;;;;;;8.11;72.31;99679.44;4473562;32;34026;-80
2023/04/23 03:09:31;;;;;;;15.52;10.73;;;;;;;8.08;72.36;99681.06;4466860;32;34323;-77
2023/04/23 03:11:59;;;;;;;13.70;10.43;;;;;;;8.20;71.46;99675.66;4469834;32;34964;-81
2023/04/23 03:14:26;;;;;;;16.58;10.80;;;;;;;8.17;71.73;99674.59;4473212;32;33131;-80
2023/04/23 03:16:54;;;;;;;14.85;10.50;;;;;;;8.31;71.37;99672.75;4457957;32;33940;-82
2023/04/23 03:19:22;;;;;;;17.37;10.77;;;;;;;8.39;70.97;99677.50;4449395;32;32281;-76
2023/04/23 03:21:49;;;;;;;16.55;10.65;;;;;;;8.52;70.20;99668.72;4467142;32;34621;-78
2023/04/23 03:24:17;;;;;;;18.17;10.93;;;;;;;8.53;70.19;99669.59;4476759;32;33320;-81
2023/04/23 03:26:45;;;;;;;15.95;10.30;;;;;;;8.57;69.88;99676.69;4477807;32;33726;-77
2023/04/23 03:29:12;;;;;;;14.18;10.05;;;;;;;8.59;69.63;99681.09;4479345;32;33723;-78
2023/04/23 03:31:40;;;;;;;14.90;10.15;;;;;;;8.53;69.72;99670.47;4464953;32;33454;-77
2023/04/23 03:34:08;;;;;;;15.70;10.60;;;;;;;8.34;70.62;99681.50;4472687;32;34307;-82
2023/04/23 03:36:35;;;;;;;17.05;10.30;;;;;;;8.23;70.92;99690.41;4470801;32;34255;-78
2023/04/23 03:39:03;;;;;;;16.30;10.45;;;;;;;7.94;72.45;99687.19;4466164;32;33761;-77
2023/04/23 03:41:32;;;;;;;15.30;10.75;;;;;;;7.80;73.02;99688.13;4471967;32;33396;-78
2023/04/23 03:44:00;;;;;;;15.27;10.40;;;;;;;7.69;73.60;99684.97;4472627;32;33609;-79
2023/04/23 03:46:28;;;;;;;15.38;10.52;;;;;;;7.79;73.15;99686.38;4472311;32;34346;-80
2023/04/23 03:48:56;;;;;;;14.98;10.43;;;;;;;7.87;73.01;99679.91;4475544;32;33701;-78
2023/04/23 03:51:23;;;;;;;14.43;10.33;;;;;;;7.85;72.92;99681.53;4477053;32;32378;-80
2023/04/23 03:53:51;;;;;;;15.98;10.25;;;;;;;7.76;73.30;99681.03;4470006;32;34232;-77
2023/04/23 03:56:20;;;;;;;14.55;10.10;;;;;;;7.99;72.63;99683.13;4474291;32;33647;-79
2023/04/23 03:58:48;;;;;;;15.60;10.45;;;;;;;7.89;73.01;99678.31;4471724;32;33876;-80
2023/04/23 04:01:17;;;;;;;15.68;10.50;;;;;;;7.72;73.56;99689.41;4468158;32;34093;-79
2023/04/23 04:03:44;;;;;;;15.13;10.40;;;;;;;7.80;73.25;99688.13;4468527;32;34344;-78
2023/04/23 04:06:12;;;;;;;17.17;10.60;;;;;;;7.75;73.31;99689.59;4475214;32;33283;-76
2023/04/23 04:08:40;;;;;;;15.32;10.98;;;;;;;7.83;73.19;99688.31;4474587;32;34507;-80
2023/04/23 04:11:07;;;;;;;13.75;10.25;;;;;;;7.94;72.42;99694.00;4469747;32;33640;-81
2023/04/23 04:13:35;;;;;;;13.15;9.85;;;;;;;8.23;72.09;99690.41;4476326;32;34299;-80
2023/04/23 04:16:02;;;;;;;14.82;10.10;;;;;;;7.80;73.17;99689.03;4480077;32;33389;-80
2023/04/23 04:18:30;;;;;;;14.35;10.35;;;;;;;7.71;73.45;99697.94;4463125;32;34649;-77
2023/04/23 04:20:58;;;;;;;14.90;10.52;;;;;;;7.96;72.79;99695.91;4468556;32;33908;-78
2023/04/23 04:23:25;;;;;;;14.45;9.73;;;;;;;8.11;72.18;99700.06;4459214;32;33761;-80
2023/04/23 04:25:55;;;;;;;15.00;10.48;;;;;;;8.03;72.50;99703.13;4447487;32;33450;-76
2023/04/23 04:28:24;;;;;;;14.45;10.77;;;;;;;8.11;72.57;99705.25;4479349;32;33354;-77
2023/04/23 04:30:56;;;;;;;14.20;10.75;;;;;;;8.56;70.78;99700.75;4469576;32;34562;-80
2023/04/23 04:33:24;;;;;;;15.13;10.73;;;;;;;8.70;69.90;99704.91;4467191;32;32913;-77
2023/04/23 04:35:53;;;;;;;15.10;10.57;;;;;;;8.15;72.75;99707.16;4465537;32;33656;-80
2023/04/23 04:38:21;;;;;;;16.50;10.53;;;;;;;8.27;73.03;99708.72;4447422;32;31971;-76
2023/04/23 04:40:49;;;;;;;16.42;10.45;;;;;;;8.63;70.97;99710.56;4460383;32;33723;-81
2023/04/23 04:43:17;;;;;;;15.50;10.13;;;;;;;8.82;70.14;99709.78;4459137;32;33379;-78
2023/04/23 04:45:44;;;;;;;15.98;11.00;;;;;;;8.83;69.91;99711.59;4456229;32;33779;-77
2023/04/23 04:48:12;;;;;;;15.63;10.55;;;;;;;8.70;71.39;99715.22;4472121;32;33739;-79
2023/04/23 04:50:39;;;;;;;15.55;10.63;;;;;;;9.06;70.38;99715.31;4477473;32;33902;-78
2023/04/23 04:53:07;;;;;;;14.65;10.48;;;;;;;9.30;69.51;99714.72;4472541;32;34303;-77
2023/04/23 04:55:34;;;;;;;16.12;10.60;;;;;;;9.49;69.02;99711.34;4470737;32;32347;-82
2023/04/23 04:58:02;;;;;;;16.70;10.60;;;;;;;9.55;68.92;99720.25;4466484;32;33764;-78
2023/04/23 05:00:29;;;;;;;15.98;11.35;;;;;;;9.79;68.43;99714.44;4469714;32;34040;-80
2023/04/23 05:02:57;;;;;;;15.63;10.82;;;;;;;9.96;68.04;99713.53;4468507;32;33539;-80
2023/04/23 05:05:26;;;;;;;15.52;10.90;;;;;;;10.17;68.17;99718.78;4450811;32;34372;-79
2023/04/23 05:07:53;;;;;;;16.35;11.02;;;;;;;10.43;67.47;99716.53;4444093;32;34665;-80
2023/04/23 05:10:21;;;;;;;16.23;10.60;;;;;;;10.67;66.91;99719.28;4460555;32;34825;-80
2023/04/23 05:12:50;;;;;;;15.88;10.52;;;;;;;10.79;66.30;99730.16;4457178;32;33033;-79
2023/04/23 05:15:18;;;;;;;16.92;11.35;;;;;;;10.97;65.41;99719.72;4462928;32;33413;-80
2023/04/23 05:17:46;;;;;;;16.25;10.98;;;;;;;10.84;65.32;99721.72;4465969;32;33489;-79
2023/04/23 05:20:14;;;;;;;15.53;11.50;;;;;;;11.10;64.58;99727.97;4465700;32;32959;-80
2023/04/23 05:22:42;;;;;;;17.40;11.45;;;;;;;11.13;64.13;99726.41;4466463;32;33366;-79
2023/04/23 05:25:13;;;;;;;16.17;11.40;;;;;;;11.02;64.49;99722.47;4452911;32;33886;-78
2023/04/23 05:27:41;;;;;;;19.10;11.68;;;;;;;10.85;64.72;99720.88;4466744;32;33531;-76
2023/04/23 05:30:09;;;;;;;16.50;11.57;;;;;;;11.20;64.39;99727.53;4466114;32;34171;-78
2023/04/23 05:32:37;;;;;;;14.87;10.98;;;;;;;11.45;64.20;99719.03;4465881;32;33121;-80
2023/04/23 05:35:05;;;;;;;15.05;11.10;;;;;;;11.43;64.17;99715.50;4467173;32;33809;-81
2023/04/23 05:37:35;;;;;;;16.33;11.66;;;;;;;11.66;63.68;99723.31;4442246;32;32240;-82
2023/04/23 05:40:05;;;;;;;14.00;10.57;;;;;;;11.78;63.48;99718.56;4454509;32;33940;-79
2023/04/23 05:42:34;;;;;;;15.85;11.23;;;;;;;11.88;63.41;99715.53;4444092;32;33301;-80
2023/04/23 05:45:02;;;;;;;15.90;10.48;;;;;;;12.03;63.52;99714.34;4467129;32;33581;-77
2023/04/23 05:47:33;;;;;;;15.15;10.77;;;;;;;13.08;60.49;99725.03;4467015;32;33650;-78
2023/04/23 05:50:01;;;;;;;15.15;11.20;;;;;;;13.01;60.25;99717.84;4466772;32;33844;-76
2023/04/23 05:52:32;;;;;;;15.90;11.63;;;;;;;13.39;60.25;99723.47;4467029;32;32485;-79
2023/04/23 05:55:00;;;;;;;16.35;11.12;;;;;;;12.82;60.66;99720.66;4466585;32;33578;-80
2023/04/23 05:57:27;;;;;;;14.10;11.25;;;;;;;13.32;59.09;99724.09;4461299;32;33238;-80
2023/04/23 05:59:55;;;;;;;16.02;12.13;;;;;;;13.01;58.41;99720.44;4464819;32;33988;-80
2023/04/23 06:02:23;;;;;;;15.73;12.10;;;;;;;13.15;59.02;99716.59;4466736;32;33524;-77
2023/04/23 06:04:51;;;;;;;15.27;11.35;;;;;;;13.39;58.80;99715.66;4455231;32;34307;-79
2023/04/23 06:07:19;;;;;;;16.62;10.98;;;;;;;13.13;58.17;99723.47;4466916;32;33665;-80
2023/04/23 06:09:47;;;;;;;16.52;12.32;;;;;;;12.96;59.39;99724.59;4466608;32;33980;-78
2023/04/23 06:12:15;;;;;;;16.12;12.25;;;;;;;13.49;58.88;99727.25;4466834;32;33711;-77
2023/04/23 06:14:42;;;;;;;15.95;11.90;;;;;;;13.77;59.07;99721.16;4459618;32;33622;-77
2023/04/23 06:17:10;;;;;;;16.02;11.85;;;;;;;13.99;58.38;99724.44;4466374;32;33944;-79
2023/04/23 06:19:38;;;;;;;17.67;12.02;;;;;;;13.63;58.37;99730.28;4466779;32;34747;-76
2023/04/23 06:22:05;;;;;;;17.37;12.32;;;;;;;13.85;57.15;99727.50;4466233;32;34183;-80
2023/04/23 06:24:32;;;;;;;17.67;12.48;;;;;;;14.20;56.12;99725.06;4463790;32;32793;-79
2023/04/23 06:27:01;;;;;;;17.45;12.32;;;;;;;13.77;56.25;99728.97;4465927;32;34359;-80
2023/04/23 06:29:29;;;;;;;16.92;11.32;;;;;;;14.06;55.68;99721.16;4466419;32;33725;-79
2023/04/23 06:32:00;;;;;;;16.05;11.63;;;;;;;14.29;55.27;99730.53;4452550;32;32510;-79
2023/04/23 06:34:28;;;;;;;16.95;11.18;;;;;;;14.41;55.37;99723.88;4462345;32;33167;-75
2023/04/23 06:36:55;;;;;;;14.40;11.23;;;;;;;14.62;54.64;99729.75;4464392;32;33573;-78
2023/04/23 06:39:23;;;;;;;16.58;11.20;;;;;;;15.25;54.27;99728.75;4464994;32;33994;-76
2023/04/23 06:41:50;;;;;;;15.85;11.18;;;;;;;15.09;54.08;99732.72;4465033;32;33111;-79
2023/04/23 06:44:19;;;;;;;15.45;11.12;;;;;;;14.84;54.35;99727.72;4466184;32;33701;-79
2023/04/23 06:46:47;;;;;;;15.37;11.40;;;;;;;14.74;54.16;99724.84;4467036;32;34071;-77
2023/04/23 06:49:15;;;;;;;15.60;10.85;;;;;;;15.53;52.27;99719.87;4467473;32;33972;-77
2023/04/23 06:51:43;;;;;;;16.97;10.80;;;;;;;15.27;52.37;99715.75;4466963;32;34091;-77
2023/04/23 06:54:10;;;;;;;22.92;12.55;;;;;;;15.66;51.28;99717.53;4452081;32;34366;-79
2023/04/23 06:56:38;;;;;;;16.75;10.73;;;;;;;16.01;50.87;99715.75;4468241;32;33696;-81
2023/04/23 06:59:05;;;;;;;15.38;10.27;;;;;;;15.88;51.02;99721.56;4468412;32;34254;-80
2023/04/23 07:01:34;;;;;;;13.07;9.73;;;;;;;16.04;49.46;99718.41;4468264;32;33389;-81
2023/04/23 07:04:01;;;;;;;13.38;9.23;;;;;;;16.16;49.48;99717.78;4467962;32;33499;-80
2023/04/23 07:06:30;;;;;;;15.02;9.52;;;;;;;16.36;49.66;99706.84;4467575;32;33883;-78
2023/04/23 07:08:57;;;;;;;15.50;9.90;;;;;;;16.75;49.55;99704.13;4467820;32;33712;-79
2023/04/23 07:11:25;;;;;;;14.57;10.00;;;;;;;16.71;48.98;99711.03;4467907;32;33375;-78
2023/04/23 07:13:53;;;;;;;14.15;9.32;;;;;;;16.58;48.39;99706.44;4459678;32;34468;-79
2023/04/23 07:16:21;;;;;;;11.55;8.95;;;;;;;16.56;48.94;99702.91;4467881;32;33732;-78
2023/04/23 07:18:49;;;;;;;14.52;9.23;;;;;;;17.25;47.09;99706.78;4467421;32;34114;-81
2023/04/23 07:21:17;;;;;;;13.88;8.90;;;;;;;17.19;47.18;99708.38;4467709;32;33066;-82
2023/04/23 07:23:44;;;;;;;14.18;8.80;;;;;;;18.00;45.16;99703.50;4468372;32;33797;-81
2023/04/23 07:26:12;;;;;;;11.77;8.55;;;;;;;17.98;45.25;99703.53;4467028;32;33717;-78
2023/04/23 07:28:40;;;;;;;13.02;8.98;;;;;;;18.98;42.87;99688.87;4467206;32;33894;-81
2023/04/23 07:31:08;;;;;;;12.63;8.27;;;;;;;19.96;40.69;99693.97;4467804;32;33218;-83
2023/04/23 07:33:35;;;;;;;14.77;9.07;;;;;;;21.56;38.37;99694.31;4468116;32;34508;-84
2023/04/23 07:36:03;;;;;;;14.45;9.13;;;;;;;22.80;34.47;99694.72;4467563;32;33856;-79
2023/04/23 07:38:30;;;;;;;14.25;9.05;;;;;;;23.44;32.10;99693.34;4455148;32;34321;-79
2023/04/23 07:40:58;;;;;;;13.88;8.90;;;;;;;25.12;30.25;99688.59;4466715;32;33441;-80
2023/04/23 07:43:26;;;;;;;13.32;8.30;;;;;;;26.45;28.20;99697.63;4437858;32;34565;-80
2023/04/23 07:45:54;;;;;;;11.35;7.18;;;;;;;27.18;26.61;99689.72;4467351;32;33526;-79
2023/04/23 07:48:22;;;;;;;10.03;6.80;;;;;;;26.87;25.02;99685.16;4467751;32;34353;-82
2023/04/23 07:50:50;;;;;;;10.70;6.72;;;;;;;28.54;23.21;99691.38;4467717;32;33700;-81
2023/04/23 07:53:17;;;;;;;8.93;6.05;;;;;;;29.10;23.00;99680.69;4465726;32;33415;-80
2023/04/23 07:55:45;;;;;;;9.30;6.22;;;;;;;28.97;21.93;99682.00;4450135;32;33955;-84
2023/04/23 07:58:12;;;;;;;8.68;5.70;;;;;;;27.80;23.33;99685.47;4467092;32;33707;-79
2023/04/23 08:00:41;;;;;;;9.10;6.18;;;;;;;29.56;21.62;99679.13;4465241;32;34483;-80
2023/04/23 08:03:09;;;;;;;8.25;6.15;;;;;;;29.73;20.46;99680.37;4458191;32;32975;-78
2023/04/23 08:05:37;;;;;;;8.98;5.95;;;;;;;28.70;21.25;99676.62;4466990;32;33429;-83
2023/04/23 08:08:06;;;;;;;11.17;6.33;;;;;;;26.17;22.72;99676.06;4465695;32;34602;-82
2023/04/23 08:10:34;;;;;;;9.80;5.95;;;;;;;26.38;24.53;99680.94;4463153;32;33983;-78
2023/04/23 08:13:02;;;;;;;8.98;5.85;;;;;;;26.87;24.93;99681.63;4465498;32;33425;-79
2023/04/23 08:15:29;;;;;;;9.50;5.97;;;;;;;25.31;24.41;99676.81;4460732;32;33781;-79
2023/04/23 08:17:57;;;;;;;9.20;5.47;;;;;;;26.62;24.74;99673.37;4467028;32;33758;-80
2023/04/23 08:20:26;;;;;;;9.30;5.80;;;;;;;27.55;24.25;99670.19;4467111;32;34059;-81
2023/04/23 08:22:54;;;;;;;7.95;5.72;;;;;;;26.21;24.68;99672.44;4443025;32;33647;-80
2023/04/23 08:25:22;;;;;;;11.00;5.85;;;;;;;24.66;27.95;99670.75;4467710;32;33238;-78
2023/04/23 08:27:49;;;;;;;9.15;6.07;;;;;;;26.61;25.52;99672.47;4468482;32;34878;-80
2023/04/23 08:30:17;;;;;;;9.98;6.35;;;;;;;24.84;25.55;99667.84;4467349;32;33490;-77
2023/04/23 08:32:48;;;;;;;10.23;5.90;;;;;;;25.76;25.22;99664.50;4465433;32;34262;-81
2023/04/23 08:35:15;;;;;;;10.55;6.30;;;;;;;26.04;24.80;99670.16;4468672;32;34451;-82
2023/04/23 08:37:43;;;;;;;;;;;;;;;24.18;28.68;99665.22;4468819;32;34244;-78
2023/04/23 08:40:12;;;;;;;12.45;7.87;;;;;;;22.64;29.51;99682.47;4467965;32;33450;-80
2023/04/23 08:42:50;;;;;;;11.45;7.70;;;;;;;23.15;28.25;99668.03;4468382;32;33735;-81
2023/04/23 08:45:18;;;;;;;11.63;7.05;;;;;;;23.89;29.29;99661.16;4454782;32;34042;-78
2023/04/23 08:47:45;;;;;;;;;;;;;;;24.61;27.85;99659.34;4467600;32;34192;-81
2023/04/23 08:50:17;;;;;;;;;;;;;;;23.18;29.53;99664.50;4470280;32;34408;-79
2023/04/23 08:52:55;;;;;;;;;;;;;;;22.79;30.62;99661.25;4456427;32;34772;-80
2023/04/23 08:55:23;;;;;;;;;;;;;;;23.58;30.69;99657.94;4468227;32;33926;-82
2023/04/23 08:57:50;;;;;;;;;;;;;;;23.49;30.70;99661.59;4468621;32;35087;-76
2023/04/23 09:00:18;;;;;;;;;;;;;;;23.88;30.70;99656.78;4468328;32;33397;-80
2023/04/23 09:02:46;;;;;;;;;;;;;;;24.05;29.37;99649.50;4454641;32;32167;-78
2023/04/23 09:05:14;;;;;;;;;;;;;;;24.38;28.98;99655.25;4455929;32;34019;-81
2023/04/23 09:07:41;;;;;;;;;;;;;;;23.57;30.75;99650.94;4454977;32;34319;-78
2023/04/23 09:10:10;;;;;;;;;;;;;;;24.51;29.90;99645.38;4455944;32;32337;-77
2023/04/23 09:12:38;;;;;;;;;;;;;;;24.50;28.65;99644.47;4468990;32;33890;-80
2023/04/23 09:15:09;;;;;;;;;;;;;;;23.90;29.45;99647.06;4455702;32;34236;-77
2023/04/23 09:17:41;;;;;;;;;;;;;;;24.63;29.24;99642.56;4465660;32;34501;-77
2023/04/23 09:20:09;;;;;;;;;;;;;;;24.19;27.54;99641.38;4463577;32;33495;-75
2023/04/23 09:22:37;;;;;;;;;;;;;;;24.73;28.25;99644.16;4456007;32;33516;-76
2023/04/23 09:25:04;;;;;;;;;;;;;;;23.51;30.18;99641.28;4466589;32;34739;-80
2023/04/23 09:27:32;;;;;;;;;;;;;;;24.98;27.66;99638.47;4466359;32;34429;-79
2023/04/23 09:30:03;;;;;;;;;;;;;;;25.07;27.77;99642.72;4467161;32;33191;-78
2023/04/23 09:32:34;;;;;;;;;;;;;;;25.21;28.13;99629.25;4455206;32;33937;-76
2023/04/23 09:35:05;;;;;;;;;;;;;;;25.74;25.27;99634.47;4465804;32;34884;-79
2023/04/23 09:37:33;;;;;;;;;;;;;;;25.80;25.33;99623.72;4466807;32;34941;-80
2023/04/23 09:40:02;;;;;;;;;;;;;;;24.55;28.19;99628.56;4456294;32;34032;-79
2023/04/23 09:42:30;;;;;;;;;;;;;;;25.18;27.04;99630.16;4467107;32;34119;-79
2023/04/23 09:45:07;;;;;;;;;;;;;;;24.68;27.15;99629.25;4456712;32;33594;-77
2023/04/23 09:47:37;;;;;;;;;;;;;;;23.55;27.03;99621.84;4466345;32;34287;-77
2023/04/23 09:50:04;;;;;;;;;;;;;;;24.41;28.31;99635.78;4466476;32;33496;-78
2023/04/23 09:52:32;;;;;;;;;;;;;;;25.52;25.74;99619.00;4464157;32;35458;-80
2023/04/23 09:55:00;;;;;;;;;;;;;;;26.11;24.01;99617.81;4468154;32;34366;-81
2023/04/23 09:57:27;;;;;;;;;;;;;;;26.02;23.99;99625.09;4468471;32;34998;-80
2023/04/23 09:59:55;;;;;;;;;;;;;;;26.64;25.69;99618.41;4452884;32;31194;-79
2023/04/23 10:02:38;;;;;;;;;;;;;;;25.50;23.73;99616.34;4453759;32;33763;-80
2023/04/23 10:05:19;;;;;;;;;;;;;;;24.41;26.50;99617.25;4467942;32;33829;-82
2023/04/23 10:07:55;;;;;;;;;;;;;;;24.89;25.88;99614.78;4467049;32;34138;-75
2023/04/23 10:10:22;;;;;;;;;;;;;;;24.72;27.44;99608.00;4459414;32;33885;-77
2023/04/23 10:12:50;;;;;;;;;;;;;;;24.05;27.71;99608.91;4459109;32;34311;-79
2023/04/23 10:15:25;;;;;;;;;;;;;;;24.80;26.03;99607.88;4461753;32;33765;-78
2023/04/23 10:17:53;;;;;;;;;;;;;;;24.30;26.61;99602.41;4468878;32;35046;-78
2023/04/23 10:20:21;;;;;;;;;;;;;;;25.01;25.54;99600.44;4469220;32;32055;-79
2023/04/23 10:22:48;;;;;;;;;;;;;;;25.50;26.24;99600.44;4469653;32;34090;-77
2023/04/23 10:25:16;;;;;;;;;;;;;;;25.81;26.12;99594.53;4449580;32;35090;-77
2023/04/23 10:27:47;;;;;;;;;;;;;;;26.23;24.38;99590.97;4469913;32;34290;-80
2023/04/23 10:30:21;;;;;;;;;;;;;;;26.56;25.02;99588.44;4470510;32;33463;-80
2023/04/23 10:32:48;;;;;;;;;;;;;;;25.59;24.60;99588.75;4468459;32;34937;-79
2023/04/23 10:35:16;;;;;;;;;;;;;;;25.64;26.24;99586.91;4470116;32;33884;-80
2023/04/23 10:37:43;;;;;;;;;;;;;;;24.79;26.18;99579.63;4467948;32;34349;-74
2023/04/23 10:40:12;;;;;;;;;;;;;;;24.92;27.62;99581.16;4470964;32;33529;-75
2023/04/23 10:42:40;;;;;;;;;;;;;;;24.56;24.18;99581.78;4468586;32;33888;-78
2023/04/23 10:45:12;;;;;;;;;;;;;;;25.40;22.67;99582.06;4453107;32;33571;-76
2023/04/23 10:47:51;;;;;;;;;;;;;;;25.95;21.34;99581.00;4468666;32;34528;-76
2023/04/23 10:50:20;;;;;;;;;;;;;;;25.38;22.58;99570.62;4455149;32;33433;-77
2023/04/23 10:52:52;;;;;;;;;;;;;;;25.12;23.68;99571.97;4467396;32;34163;-78
2023/04/23 10:55:20;;;;;;;;;;;;;;;25.92;23.01;99570.44;4466989;32;34564;-77
2023/04/23 10:58:14;;;;;;;;;;;;;;;26.60;22.50;99563.62;4468291;32;34500;-80
2023/04/23 11:00:42;;;;;;;;;;;;;;;26.81;21.25;99563.06;4467332;32;33227;-77
2023/04/23 11:03:29;;;;;;;;;;;;;;;26.95;19.94;99559.19;4466071;32;33943;-74
2023/04/23 11:06:00;;;;;;;;;;;;;;;27.32;19.77;99564.41;4469590;32;33858;-78
2023/04/23 11:08:32;;;;;;;;;;;;;;;26.01;20.08;99570.22;4462838;32;34411;-79
2023/04/23 11:11:00;;;;;;;;;;;;;;;25.79;20.68;99574.25;4456930;32;32768;-77
2023/04/23 11:13:28;;;;;;;;;;;;;;;24.79;20.22;99566.37;4468580;32;34171;-77
2023/04/23 11:16:14;;;;;;;;;;;;;;;26.54;18.98;99569.03;4467808;32;32886;-77
2023/04/23 11:19:02;;;;;;;;;;;;;;;27.02;18.41;99555.44;4474075;32;34129;-78
2023/04/23 11:21:48;;;;;;;;;;;;;;;26.70;19.50;99558.94;4469412;32;33105;-77
2023/04/23 11:24:16;;;;;;;;;;;;;;;27.67;18.53;99556.34;4467267;32;34712;-78
2023/04/23 11:26:43;;;;;;;;;;;;;;;27.43;19.53;99558.81;4476629;32;36526;-77
2023/04/23 11:29:13;;;;;;;;;;;;;;;27.59;19.77;99557.44;4467587;32;34293;-77
2023/04/23 11:31:41;;;;;;;;;;;;;;;27.15;18.33;99562.16;4455623;32;35827;-77
2023/04/23 11:34:27;;;;;;;;;;;;;;;26.88;18.99;99542.50;4455830;32;34627;-78
2023/04/23 11:36:55;;;;;;;;;;;;;;;28.00;18.64;99547.38;4468848;32;34927;-76
2023/04/23 11:39:23;;;;;;;;;;;;;;;27.87;19.51;99555.75;4456921;32;34020;-79
2023/04/23 11:41:51;;;;;;;;;;;;;;;27.05;18.98;99555.38;4466311;32;34226;-79
2023/04/23 11:44:20;;;;;;;;;;;;;;;26.48;18.42;99544.37;4454459;32;34163;-79
2023/04/23 11:46:48;;;;;;;;;;;;;;;27.05;17.87;99550.06;4468355;32;33434;-80
2023/04/23 11:49:16;;;;;;;;;;;;;;;27.35;18.40;99543.06;4442873;32;34510;-76
2023/04/23 11:51:43;;;;;;;;;;;;;;;27.73;18.52;99529.56;4466958;32;34385;-75